createdAt,value
2018-01-06T00:00:32.104Z,993.6
2018-01-06T00:01:12.504Z,993.61
2018-01-06T00:01:52.899Z,993.59
2018-01-06T00:02:53.617Z,993.53
2018-01-06T00:03:37.682Z,993.57
2018-01-06T00:04:23.789Z,993.53
2018-01-06T00:05:05.117Z,993.56
2018-01-06T00:07:37.559Z,993.59
2018-01-06T00:11:46.939Z,993.57
2018-01-06T00:12:47.961Z,993.59
2018-01-06T00:15:49.285Z,993.61
2018-01-06T00:16:32.489Z,993.57
2018-01-06T00:20:02.454Z,993.59
2018-01-06T00:20:55.293Z,993.56
2018-01-06T00:21:47.912Z,993.61
2018-01-06T00:22:40.175Z,993.59
2018-01-06T00:23:33.000Z,993.56
2018-01-06T00:24:25.376Z,993.55
2018-01-06T00:25:17.790Z,993.61
2018-01-06T00:26:10.486Z,993.58
2018-01-06T00:27:02.762Z,993.6
2018-01-06T00:27:55.035Z,993.6
2018-01-06T00:28:47.958Z,993.66
2018-01-06T00:29:40.735Z,993.65
2018-01-06T00:30:33.167Z,993.66
2018-01-06T00:31:25.793Z,993.65
2018-01-06T00:32:18.212Z,993.68
2018-01-06T00:33:11.187Z,993.65
2018-01-06T00:34:03.314Z,993.68
2018-01-06T00:34:55.710Z,993.65
2018-01-06T00:35:48.590Z,993.65
2018-01-06T00:36:41.062Z,993.64
2018-01-06T00:37:33.130Z,993.66
2018-01-06T00:38:25.601Z,993.66
2018-01-06T00:39:18.273Z,993.64
2018-01-06T00:40:10.750Z,993.65
2018-01-06T00:41:03.333Z,993.67
2018-01-06T00:41:55.699Z,993.69
2018-01-06T00:42:48.229Z,993.71
2018-01-06T00:43:41.271Z,993.71
2018-01-06T00:44:33.753Z,993.69
2018-01-06T00:45:26.732Z,993.75
2018-01-06T00:46:19.211Z,993.72
2018-01-06T00:47:12.594Z,993.69
2018-01-06T00:48:04.918Z,993.7
2018-01-06T00:48:57.014Z,993.72
2018-01-06T00:49:49.288Z,993.73
2018-01-06T00:50:41.806Z,993.67
2018-01-06T00:51:34.677Z,993.67
2018-01-06T00:52:27.018Z,993.67
2018-01-06T00:53:19.359Z,993.7
2018-01-06T00:54:11.913Z,993.72
2018-01-06T00:55:04.185Z,993.68
2018-01-06T00:55:57.883Z,993.7
2018-01-06T00:56:50.343Z,993.7
2018-01-06T00:57:42.406Z,993.71
2018-01-06T00:58:34.260Z,993.7
2018-01-06T00:59:26.552Z,993.71
2018-01-06T01:00:19.143Z,993.69
2018-01-06T01:01:11.161Z,993.69
2018-01-06T01:02:04.871Z,993.68
2018-01-06T01:02:57.147Z,993.69
2018-01-06T01:03:49.315Z,993.67
2018-01-06T01:04:41.822Z,993.69
2018-01-06T01:05:34.104Z,993.66
2018-01-06T01:06:26.314Z,993.67
2018-01-06T01:07:18.110Z,993.66
2018-01-06T01:08:10.200Z,993.64
2018-01-06T01:08:57.418Z,993.64
2018-01-06T01:09:38.070Z,993.67
2018-01-06T01:10:18.803Z,993.64
2018-01-06T01:10:59.606Z,993.66
2018-01-06T01:11:40.345Z,993.68
2018-01-06T01:12:21.612Z,993.66
2018-01-06T01:13:02.636Z,993.66
2018-01-06T01:13:43.453Z,993.67
2018-01-06T01:14:24.761Z,993.71
2018-01-06T01:15:05.448Z,993.7
2018-01-06T01:15:45.964Z,993.7
2018-01-06T01:16:26.879Z,993.76
2018-01-06T01:17:07.585Z,993.74
2018-01-06T01:17:48.465Z,993.77
2018-01-06T01:18:28.969Z,993.76
2018-01-06T01:19:09.738Z,993.81
2018-01-06T01:19:50.644Z,993.82
2018-01-06T01:20:31.920Z,993.78
2018-01-06T01:21:12.550Z,993.84
2018-01-06T01:21:53.762Z,993.78
2018-01-06T01:22:34.217Z,993.85
2018-01-06T01:23:15.104Z,993.82
2018-01-06T01:23:56.327Z,993.85
2018-01-06T01:24:36.619Z,993.91
2018-01-06T01:25:17.269Z,993.88
2018-01-06T01:25:57.862Z,993.93
2018-01-06T01:26:38.418Z,993.92
2018-01-06T01:27:19.399Z,993.9
2018-01-06T01:27:59.665Z,993.94
2018-01-06T01:28:40.480Z,993.97
2018-01-06T01:29:20.663Z,993.93
2018-01-06T01:30:01.120Z,993.94
2018-01-06T01:30:41.796Z,994.01
2018-01-06T01:31:22.358Z,993.97
2018-01-06T01:32:03.195Z,993.96
2018-01-06T01:32:44.324Z,993.97
2018-01-06T01:33:24.912Z,994.04
2018-01-06T01:34:06.049Z,994.02
2018-01-06T01:34:46.934Z,994.06
2018-01-06T01:35:27.775Z,994.02
2018-01-06T01:36:08.658Z,994.04
2018-01-06T01:36:49.496Z,994.04
2018-01-06T01:37:30.625Z,994.09
2018-01-06T01:38:11.278Z,994.07
2018-01-06T01:38:52.253Z,994.07
2018-01-06T01:39:33.517Z,994.07
2018-01-06T01:40:14.156Z,994.03
2018-01-06T01:40:54.899Z,994.08
2018-01-06T01:41:35.421Z,994.09
2018-01-06T01:42:15.998Z,994.07
2018-01-06T01:42:56.650Z,994.1
2018-01-06T01:43:37.659Z,994.09
2018-01-06T01:44:18.068Z,994.08
2018-01-06T01:44:59.043Z,994.15
2018-01-06T01:45:39.982Z,994.17
2018-01-06T01:46:20.498Z,994.16
2018-01-06T01:47:01.449Z,994.19
2018-01-06T01:47:42.161Z,994.2
2018-01-06T01:48:22.697Z,994.22
2018-01-06T01:49:03.443Z,994.23
2018-01-06T01:49:44.126Z,994.25
2018-01-06T01:50:24.516Z,994.2
2018-01-06T01:51:05.087Z,994.2
2018-01-06T01:51:45.939Z,994.26
2018-01-06T01:52:26.580Z,994.18
2018-01-06T01:53:07.455Z,994.19
2018-01-06T01:53:48.307Z,994.18
2018-01-06T01:54:29.331Z,994.22
2018-01-06T01:55:09.814Z,994.23
2018-01-06T01:55:50.694Z,994.24
2018-01-06T01:56:31.418Z,994.24
2018-01-06T01:57:12.120Z,994.25
2018-01-06T01:57:52.763Z,994.22
2018-01-06T01:58:33.378Z,994.2
2018-01-06T01:59:14.371Z,994.14
2018-01-06T01:59:55.130Z,994.18
2018-01-06T02:00:35.766Z,994.16
2018-01-06T02:01:16.465Z,994.14
2018-01-06T02:01:57.349Z,994.15
2018-01-06T02:02:38.410Z,994.13
2018-01-06T02:03:18.845Z,994.09
2018-01-06T02:03:59.346Z,994.13
2018-01-06T02:04:40.784Z,994.13
2018-01-06T02:05:21.390Z,994.1
2018-01-06T02:06:01.973Z,994.16
2018-01-06T02:06:42.325Z,994.17
2018-01-06T02:07:23.147Z,994.21
2018-01-06T02:08:03.666Z,994.19
2018-01-06T02:08:44.323Z,994.22
2018-01-06T02:09:25.089Z,994.24
2018-01-06T02:10:06.180Z,994.27
2018-01-06T02:10:46.787Z,994.26
2018-01-06T02:11:27.405Z,994.29
2018-01-06T02:12:08.427Z,994.27
2018-01-06T02:12:49.378Z,994.25
2018-01-06T02:13:30.112Z,994.29
2018-01-06T02:14:10.609Z,994.35
2018-01-06T02:14:51.418Z,994.3
2018-01-06T02:15:32.271Z,994.33
2018-01-06T02:16:12.957Z,994.32
2018-01-06T02:16:54.635Z,994.32
2018-01-06T02:17:35.266Z,994.34
2018-01-06T02:18:16.267Z,994.32
2018-01-06T02:18:57.393Z,994.33
2018-01-06T02:19:38.100Z,994.33
2018-01-06T02:20:18.806Z,994.3
2018-01-06T02:20:59.391Z,994.34
2018-01-06T02:21:40.326Z,994.32
2018-01-06T02:22:21.232Z,994.31
2018-01-06T02:23:02.405Z,994.3
2018-01-06T02:23:43.259Z,994.34
2018-01-06T02:24:23.844Z,994.27
2018-01-06T02:25:04.864Z,994.31
2018-01-06T02:25:45.825Z,994.31
2018-01-06T02:26:26.470Z,994.33
2018-01-06T02:27:07.467Z,994.33
2018-01-06T02:27:48.224Z,994.31
2018-01-06T02:28:28.861Z,994.34
2018-01-06T02:29:10.002Z,994.31
2018-01-06T02:29:51.525Z,994.36
2018-01-06T02:30:32.430Z,994.32
2018-01-06T02:31:13.471Z,994.29
2018-01-06T02:31:54.420Z,994.29
2018-01-06T02:32:35.007Z,994.3
2018-01-06T02:33:15.839Z,994.27
2018-01-06T02:33:57.377Z,994.27
2018-01-06T02:34:38.420Z,994.3
2018-01-06T02:35:19.280Z,994.31
2018-01-06T02:36:00.030Z,994.29
2018-01-06T02:36:40.535Z,994.31
2018-01-06T02:37:21.442Z,994.3
2018-01-06T02:38:02.348Z,994.33
2018-01-06T02:38:43.467Z,994.33
2018-01-06T02:39:23.874Z,994.34
2018-01-06T02:40:04.744Z,994.4
2018-01-06T02:40:45.365Z,994.45
2018-01-06T02:41:26.343Z,994.45
2018-01-06T02:42:07.086Z,994.44
2018-01-06T02:42:47.954Z,994.46
2018-01-06T02:43:28.457Z,994.5
2018-01-06T02:44:09.325Z,994.53
2018-01-06T02:44:49.951Z,994.51
2018-01-06T02:45:30.807Z,994.55
2018-01-06T02:46:11.107Z,994.56
2018-01-06T02:46:51.643Z,994.55
2018-01-06T02:47:32.220Z,994.52
2018-01-06T02:48:13.045Z,994.52
2018-01-06T02:48:53.547Z,994.51
2018-01-06T02:49:34.319Z,994.52
2018-01-06T02:50:15.037Z,994.48
2018-01-06T02:50:55.873Z,994.52
2018-01-06T02:51:36.614Z,994.5
2018-01-06T02:52:17.483Z,994.53
2018-01-06T02:52:58.134Z,994.51
2018-01-06T02:53:38.651Z,994.49
2018-01-06T02:54:19.508Z,994.52
2018-01-06T02:54:59.947Z,994.59
2018-01-06T02:55:40.726Z,994.56
2018-01-06T02:56:21.211Z,994.56
2018-01-06T02:57:01.648Z,994.58
2018-01-06T02:57:42.457Z,994.59
2018-01-06T02:58:22.999Z,994.59
2018-01-06T02:59:03.616Z,994.58
2018-01-06T02:59:44.285Z,994.6
2018-01-06T03:00:24.791Z,994.62
2018-01-06T03:01:05.764Z,994.67
2018-01-06T03:01:46.574Z,994.63
2018-01-06T03:02:27.223Z,994.6
2018-01-06T03:03:07.639Z,994.65
2018-01-06T03:03:48.180Z,994.64
2018-01-06T03:04:28.755Z,994.64
2018-01-06T03:05:09.272Z,994.68
2018-01-06T03:05:50.212Z,994.65
2018-01-06T03:06:30.955Z,994.62
2018-01-06T03:07:11.699Z,994.66
2018-01-06T03:07:52.340Z,994.6
2018-01-06T03:08:33.024Z,994.58
2018-01-06T03:09:14.396Z,994.62
2018-01-06T03:09:55.055Z,994.57
2018-01-06T03:10:35.594Z,994.6
2018-01-06T03:11:16.807Z,994.6
2018-01-06T03:11:57.378Z,994.59
2018-01-06T03:12:37.808Z,994.59
2018-01-06T03:13:18.793Z,994.58
2018-01-06T03:13:59.412Z,994.57
2018-01-06T03:14:39.952Z,994.61
2018-01-06T03:15:20.472Z,994.6
2018-01-06T03:16:01.096Z,994.65
2018-01-06T03:16:41.465Z,994.6
2018-01-06T03:17:22.400Z,994.61
2018-01-06T03:18:03.000Z,994.63
2018-01-06T03:18:43.755Z,994.62
2018-01-06T03:19:24.316Z,994.61
2018-01-06T03:20:05.066Z,994.62
2018-01-06T03:20:45.818Z,994.59
2018-01-06T03:21:26.143Z,994.57
2018-01-06T03:22:06.819Z,994.54
2018-01-06T03:22:47.550Z,994.55
2018-01-06T03:23:28.487Z,994.55
2018-01-06T03:24:08.957Z,994.54
2018-01-06T03:24:49.564Z,994.55
2018-01-06T03:25:30.356Z,994.56
2018-01-06T03:26:10.723Z,994.53
2018-01-06T03:26:51.448Z,994.57
2018-01-06T03:27:31.974Z,994.56
2018-01-06T03:28:12.822Z,994.53
2018-01-06T03:28:53.363Z,994.52
2018-01-06T03:29:34.215Z,994.55
2018-01-06T03:30:14.838Z,994.49
2018-01-06T03:30:55.359Z,994.46
2018-01-06T03:31:36.227Z,994.5
2018-01-06T03:32:17.063Z,994.44
2018-01-06T03:32:57.758Z,994.43
2018-01-06T03:33:38.119Z,994.46
2018-01-06T03:34:19.209Z,994.46
2018-01-06T03:34:59.868Z,994.46
2018-01-06T03:35:40.762Z,994.47
2018-01-06T03:36:21.347Z,994.43
2018-01-06T03:37:02.727Z,994.47
2018-01-06T03:37:43.290Z,994.51
2018-01-06T03:38:23.883Z,994.49
2018-01-06T03:39:04.328Z,994.47
2018-01-06T03:39:45.720Z,994.48
2018-01-06T03:40:25.656Z,994.42
2018-01-06T03:41:06.691Z,994.43
2018-01-06T03:41:47.216Z,994.46
2018-01-06T03:42:27.909Z,994.43
2018-01-06T03:43:08.905Z,994.45
2018-01-06T03:43:50.006Z,994.46
2018-01-06T03:44:30.396Z,994.44
2018-01-06T03:45:11.015Z,994.47
2018-01-06T03:45:51.606Z,994.42
2018-01-06T03:46:32.927Z,994.44
2018-01-06T03:47:13.579Z,994.44
2018-01-06T03:47:54.594Z,994.44
2018-01-06T03:48:35.438Z,994.46
2018-01-06T03:49:15.997Z,994.46
2018-01-06T03:49:56.511Z,994.46
2018-01-06T03:50:37.400Z,994.47
2018-01-06T03:51:18.748Z,994.46
2018-01-06T03:51:59.122Z,994.47
2018-01-06T03:52:40.474Z,994.46
2018-01-06T03:53:21.458Z,994.53
2018-01-06T03:54:02.204Z,994.5
2018-01-06T03:54:43.411Z,994.5
2018-01-06T03:55:24.684Z,994.52
2018-01-06T03:56:05.508Z,994.51
2018-01-06T03:56:46.012Z,994.57
2018-01-06T03:57:26.854Z,994.53
2018-01-06T03:58:07.471Z,994.56
2018-01-06T03:58:48.407Z,994.57
2018-01-06T03:59:29.140Z,994.55
2018-01-06T04:00:09.754Z,994.52
2018-01-06T04:00:50.567Z,994.49
2018-01-06T04:01:31.293Z,994.48
2018-01-06T04:02:12.559Z,994.48
2018-01-06T04:42:05.634Z,995.07
2018-01-06T04:42:58.045Z,995.08
2018-01-06T04:43:50.424Z,995.12
2018-01-06T04:44:42.912Z,995.11
2018-01-06T04:45:35.533Z,995.14
2018-01-06T04:46:27.900Z,995.15
2018-01-06T04:47:20.544Z,995.19
2018-01-06T04:48:12.912Z,995.21
2018-01-06T04:49:05.440Z,995.17
2018-01-06T04:49:57.744Z,995.14
2018-01-06T04:50:49.795Z,995.17
2018-01-06T04:51:42.280Z,995.17
2018-01-06T04:52:34.962Z,995.17
2018-01-06T04:53:27.679Z,995.15
2018-01-06T04:54:20.009Z,995.21
2018-01-06T04:55:12.253Z,995.2
2018-01-06T04:56:04.545Z,995.16
2018-01-06T04:56:57.161Z,995.15
2018-01-06T04:57:49.537Z,995.14
2018-01-06T04:58:42.060Z,995.12
2018-01-06T04:59:34.403Z,995.05
2018-01-06T05:00:26.832Z,995.09
2018-01-06T05:01:19.152Z,995.1
2018-01-06T05:02:11.867Z,995.08
2018-01-06T05:03:04.574Z,995.09
2018-01-06T05:03:56.849Z,995.09
2018-01-06T05:04:49.284Z,995.11
2018-01-06T05:05:41.714Z,995.15
2018-01-06T05:06:33.814Z,995.13
2018-01-06T05:09:00.009Z,995.16
2018-01-06T05:09:52.375Z,995.16
2018-01-06T05:10:44.829Z,995.23
2018-01-06T05:11:37.146Z,995.2
2018-01-06T05:12:30.008Z,995.21
2018-01-06T05:13:22.607Z,995.23
2018-01-06T05:14:15.166Z,995.27
2018-01-06T05:15:07.607Z,995.22
2018-01-06T05:15:59.617Z,995.17
2018-01-06T05:16:52.090Z,995.18
2018-01-06T05:17:44.784Z,995.21
2018-01-06T05:18:37.592Z,995.24
2018-01-06T05:19:30.064Z,995.27
2018-01-06T05:20:22.813Z,995.28
2018-01-06T05:21:15.401Z,995.35
2018-01-06T05:22:08.480Z,995.3
2018-01-06T05:23:00.669Z,995.33
2018-01-06T05:23:52.795Z,995.27
2018-01-06T05:24:45.241Z,995.3
2018-01-06T05:25:37.767Z,995.35
2018-01-06T05:26:30.832Z,995.27
2018-01-06T05:27:23.097Z,995.32
2018-01-06T05:28:15.693Z,995.32
2018-01-06T05:29:07.897Z,995.29
2018-01-06T05:30:00.849Z,995.31
2018-01-06T05:30:53.046Z,995.29
2018-01-06T05:31:44.933Z,995.29
2018-01-06T05:32:37.011Z,995.29
2018-01-06T05:33:29.818Z,995.33
2018-01-06T05:34:23.065Z,995.3
2018-01-06T05:35:16.184Z,995.28
2018-01-06T05:36:08.894Z,995.25
2018-01-06T05:37:01.292Z,995.23
2018-01-06T05:37:53.712Z,995.19
2018-01-06T05:38:45.755Z,995.11
2018-01-06T05:39:38.036Z,995.04
2018-01-06T05:40:30.658Z,995
2018-01-06T05:41:23.202Z,995.03
2018-01-06T05:42:15.439Z,994.97
2018-01-06T05:43:07.661Z,995.01
2018-01-06T05:44:00.060Z,995.01
2018-01-06T05:44:52.865Z,995.02
2018-01-06T05:45:45.097Z,995.07
2018-01-06T05:46:37.718Z,995.08
2018-01-06T05:47:29.900Z,995.09
2018-01-06T05:48:21.981Z,995.08
2018-01-06T05:49:14.646Z,995.13
2018-01-06T05:50:07.156Z,995.13
2018-01-06T05:50:59.704Z,995.07
2018-01-06T05:51:51.751Z,995.06
2018-01-06T05:52:43.954Z,995.06
2018-01-06T05:53:36.158Z,995.06
2018-01-06T05:54:28.452Z,995.1
2018-01-06T05:55:20.706Z,995.21
2018-01-06T05:56:12.737Z,995.18
2018-01-06T05:57:04.737Z,995.19
2018-01-06T05:57:56.879Z,995.19
2018-01-06T06:00:30.171Z,995.23
2018-01-06T06:01:23.407Z,995.26
2018-01-06T06:02:15.656Z,995.24
2018-01-06T06:03:08.451Z,995.19
2018-01-06T06:04:00.966Z,995.17
2018-01-06T06:04:53.347Z,995.15
2018-01-06T06:05:45.436Z,995.08
2018-01-06T06:06:37.771Z,995.09
2018-01-06T06:07:30.485Z,995.15
2018-01-06T06:08:22.521Z,995.15
2018-01-06T06:09:14.103Z,995.18
2018-01-06T06:10:06.312Z,995.14
2018-01-06T06:10:58.648Z,995.22
2018-01-06T06:11:51.679Z,995.19
2018-01-06T06:12:44.057Z,995.23
2018-01-06T06:13:36.238Z,995.28
2018-01-06T06:14:28.475Z,995.28
2018-01-06T06:15:20.704Z,995.36
2018-01-06T06:16:13.468Z,995.4
2018-01-06T06:17:05.602Z,995.39
2018-01-06T06:17:57.966Z,995.42
2018-01-06T06:18:50.566Z,995.4
2018-01-06T06:19:43.132Z,995.43
2018-01-06T06:20:35.112Z,995.4
2018-01-06T06:21:27.744Z,995.38
2018-01-06T06:22:21.608Z,995.43
2018-01-06T06:23:13.676Z,995.44
2018-01-06T06:24:06.793Z,995.45
2018-01-06T06:24:59.702Z,995.47
2018-01-06T06:25:52.095Z,995.44
2018-01-06T06:26:44.752Z,995.47
2018-01-06T06:27:36.955Z,995.46
2018-01-06T06:28:29.360Z,995.42
2018-01-06T06:29:21.549Z,995.43
2018-01-06T06:30:13.621Z,995.46
2018-01-06T06:31:06.224Z,995.49
2018-01-06T06:31:58.633Z,995.5
2018-01-06T06:32:51.140Z,995.47
2018-01-06T06:33:44.189Z,995.49
2018-01-06T06:34:36.912Z,995.47
2018-01-06T06:35:29.186Z,995.5
2018-01-06T06:36:21.690Z,995.47
2018-01-06T06:37:14.733Z,995.45
2018-01-06T06:38:07.202Z,995.43
2018-01-06T06:39:00.454Z,995.45
2018-01-06T06:39:53.215Z,995.44
2018-01-06T06:40:45.297Z,995.43
2018-01-06T06:41:37.595Z,995.43
2018-01-06T06:42:29.997Z,995.45
2018-01-06T06:43:22.389Z,995.51
2018-01-06T06:44:14.602Z,995.49
2018-01-06T06:45:06.709Z,995.48
2018-01-06T06:45:59.306Z,995.53
2018-01-06T06:46:51.702Z,995.53
2018-01-06T06:47:44.164Z,995.48
2018-01-06T06:48:36.837Z,995.55
2018-01-06T06:49:29.197Z,995.54
2018-01-06T06:50:21.480Z,995.54
2018-01-06T06:51:13.684Z,995.57
2018-01-06T06:52:05.798Z,995.57
2018-01-06T06:52:58.232Z,995.61
2018-01-06T06:53:50.948Z,995.6
2018-01-06T06:54:43.156Z,995.55
2018-01-06T06:55:35.394Z,995.52
2018-01-06T06:56:27.637Z,995.48
2018-01-06T06:57:19.751Z,995.46
2018-01-06T06:58:12.211Z,995.48
2018-01-06T06:59:04.729Z,995.5
2018-01-06T06:59:57.304Z,995.48
2018-01-06T07:00:49.693Z,995.49
2018-01-06T07:01:43.431Z,995.54
2018-01-06T07:02:35.202Z,995.56
2018-01-06T07:03:27.823Z,995.59
2018-01-06T07:04:20.522Z,995.57
2018-01-06T07:05:12.966Z,995.6
2018-01-06T07:06:07.108Z,995.59
2018-01-06T07:06:59.313Z,995.64
2018-01-06T07:07:51.884Z,995.62
2018-01-06T07:08:45.230Z,995.71
2018-01-06T07:09:37.978Z,995.73
2018-01-06T07:10:30.573Z,995.77
2018-01-06T07:11:22.734Z,995.8
2018-01-06T07:12:10.328Z,995.81
2018-01-06T07:12:51.220Z,995.81
2018-01-06T07:13:33.641Z,995.84
2018-01-06T07:14:15.166Z,995.84
2018-01-06T07:14:55.851Z,995.86
2018-01-06T07:15:37.293Z,995.83
2018-01-06T07:16:18.395Z,995.83
2018-01-06T07:16:59.437Z,995.84
2018-01-06T07:17:40.350Z,995.86
2018-01-06T07:18:21.115Z,995.87
2018-01-06T07:19:02.370Z,995.86
2018-01-06T07:19:44.070Z,995.83
2018-01-06T07:20:24.965Z,995.81
2018-01-06T07:21:06.104Z,995.81
2018-01-06T07:21:46.622Z,995.8
2018-01-06T07:22:27.362Z,995.82
2018-01-06T07:23:08.002Z,995.8
2018-01-06T07:23:48.868Z,995.77
2018-01-06T07:24:30.590Z,995.8
2018-01-06T07:25:11.060Z,995.83
2018-01-06T07:25:51.885Z,995.81
2018-01-06T07:26:33.012Z,995.8
2018-01-06T07:27:13.765Z,995.86
2018-01-06T07:27:54.756Z,995.86
2018-01-06T07:28:35.631Z,995.88
2018-01-06T07:29:16.759Z,995.84
2018-01-06T07:29:57.907Z,995.88
2018-01-06T07:30:38.821Z,995.89
2018-01-06T07:31:19.794Z,995.9
2018-01-06T07:32:00.831Z,995.92
2018-01-06T07:32:42.078Z,995.96
2018-01-06T07:33:22.936Z,995.94
2018-01-06T07:34:04.692Z,995.96
2018-01-06T07:34:46.316Z,995.96
2018-01-06T07:35:27.552Z,995.95
2018-01-06T07:36:08.084Z,995.96
2018-01-06T07:36:48.555Z,995.97
2018-01-06T07:37:30.326Z,995.96
2018-01-06T07:38:11.658Z,995.97
2018-01-06T07:38:52.699Z,995.96
2018-01-06T07:39:34.148Z,995.99
2018-01-06T07:40:15.562Z,996.01
2018-01-06T07:40:56.698Z,996
2018-01-06T07:41:37.464Z,996.02
2018-01-06T07:42:18.229Z,996.03
2018-01-06T07:42:59.332Z,996.04
2018-01-06T07:43:41.104Z,996.06
2018-01-06T07:44:21.921Z,996.12
2018-01-06T07:45:05.730Z,996.07
2018-01-06T07:45:55.518Z,996.08
2018-01-06T07:46:56.189Z,996.08
2018-01-06T07:47:51.922Z,996.08
2018-01-06T07:48:32.931Z,996.08
2018-01-06T07:49:14.112Z,996.05
2018-01-06T07:49:54.725Z,996.06
2018-01-06T07:50:36.237Z,996.05
2018-01-06T07:51:17.290Z,996.06
2018-01-06T07:51:58.309Z,996.07
2018-01-06T07:52:39.612Z,996.09
2018-01-06T07:53:20.623Z,996.07
2018-01-06T07:54:01.185Z,996.14
2018-01-06T07:54:42.840Z,996.09
2018-01-06T07:55:23.768Z,996.08
2018-01-06T07:56:04.538Z,996.12
2018-01-06T07:56:45.674Z,996.14
2018-01-06T07:57:26.651Z,996.19
2018-01-06T07:58:07.546Z,996.23
2018-01-06T07:58:49.215Z,996.2
2018-01-06T07:59:31.160Z,996.25
2018-01-06T08:00:11.905Z,996.33
2018-01-06T08:00:52.748Z,996.34
2018-01-06T08:01:34.368Z,996.37
2018-01-06T08:02:15.149Z,996.37
2018-01-06T08:02:55.884Z,996.36
2018-01-06T08:03:36.619Z,996.37
2018-01-06T08:04:17.512Z,996.4
2018-01-06T08:04:58.656Z,996.42
2018-01-06T08:05:39.715Z,996.41
2018-01-06T08:06:20.202Z,996.38
2018-01-06T08:07:01.169Z,996.42
2018-01-06T08:07:41.931Z,996.44
2018-01-06T08:08:22.892Z,996.44
2018-01-06T08:09:03.473Z,996.49
2018-01-06T08:09:43.857Z,996.47
2018-01-06T08:10:25.068Z,996.49
2018-01-06T08:11:06.203Z,996.5
2018-01-06T08:11:47.123Z,996.49
2018-01-06T08:12:27.611Z,996.46
2018-01-06T08:13:08.996Z,996.47
2018-01-06T08:13:50.133Z,996.44
2018-01-06T08:14:31.501Z,996.47
2018-01-06T08:15:11.824Z,996.46
2018-01-06T08:15:52.814Z,996.44
2018-01-06T08:16:33.576Z,996.46
2018-01-06T08:17:14.735Z,996.46
2018-01-06T08:17:55.883Z,996.47
2018-01-06T08:18:36.435Z,996.49
2018-01-06T08:19:17.335Z,996.49
2018-01-06T08:19:58.005Z,996.46
2018-01-06T08:20:39.093Z,996.5
2018-01-06T08:21:19.748Z,996.49
2018-01-06T08:22:00.764Z,996.56
2018-01-06T08:22:42.731Z,996.53
2018-01-06T08:23:23.424Z,996.52
2018-01-06T08:24:05.049Z,996.53
2018-01-06T08:24:45.943Z,996.52
2018-01-06T08:25:26.583Z,996.53
2018-01-06T08:26:07.224Z,996.52
2018-01-06T08:26:47.586Z,996.51
2018-01-06T08:27:28.404Z,996.49
2018-01-06T08:28:09.109Z,996.49
2018-01-06T08:28:49.781Z,996.49
2018-01-06T08:29:30.664Z,996.51
2018-01-06T08:30:11.393Z,996.55
2018-01-06T08:30:52.411Z,996.53
2018-01-06T08:31:33.341Z,996.56
2018-01-06T08:32:13.661Z,996.58
2018-01-06T08:32:54.584Z,996.6
2018-01-06T08:33:35.257Z,996.55
2018-01-06T08:34:16.731Z,996.57
2018-01-06T08:34:57.502Z,996.61
2018-01-06T08:35:38.087Z,996.61
2018-01-06T08:36:19.219Z,996.67
2018-01-06T08:36:59.631Z,996.64
2018-01-06T08:37:40.416Z,996.66
2018-01-06T08:38:20.930Z,996.68
2018-01-06T08:39:02.811Z,996.67
2018-01-06T08:39:44.899Z,996.7
2018-01-06T08:40:26.542Z,996.73
2018-01-06T08:41:07.963Z,996.73
2018-01-06T08:41:48.409Z,996.74
2018-01-06T08:42:29.743Z,996.71
2018-01-06T08:43:10.491Z,996.75
2018-01-06T08:43:51.002Z,996.81
2018-01-06T08:44:31.444Z,996.8
2018-01-06T08:45:12.021Z,996.8
2018-01-06T08:45:52.928Z,996.83
2018-01-06T08:46:33.446Z,996.82
2018-01-06T08:47:14.313Z,996.86
2018-01-06T08:47:55.149Z,996.89
2018-01-06T08:48:38.334Z,996.88
2018-01-06T08:49:19.471Z,996.86
2018-01-06T08:49:59.978Z,996.91
2018-01-06T08:50:40.904Z,996.9
2018-01-06T08:51:21.676Z,996.89
2018-01-06T08:52:02.261Z,996.91
2018-01-06T08:52:43.121Z,996.91
2018-01-06T08:53:24.595Z,996.92
2018-01-06T08:54:05.615Z,997
2018-01-06T08:54:46.585Z,997.02
2018-01-06T08:55:27.481Z,997
2018-01-06T08:56:09.230Z,997.03
2018-01-06T08:56:50.738Z,997.01
2018-01-06T08:57:32.407Z,997.05
2018-01-06T08:58:16.560Z,997.02
2018-01-06T08:59:00.410Z,997.04
2018-01-06T08:59:44.335Z,997.04
2018-01-06T09:00:25.793Z,997
2018-01-06T09:01:08.549Z,997.03
2018-01-06T09:01:51.941Z,997.03
2018-01-06T09:02:32.779Z,997.06
2018-01-06T09:03:14.215Z,997.05
2018-01-06T09:03:56.189Z,997.06
2018-01-06T09:04:37.025Z,997.05
2018-01-06T09:05:19.385Z,997.07
2018-01-06T09:06:00.033Z,997.06
2018-01-06T09:06:43.681Z,997.08
2018-01-06T09:09:15.344Z,997.12
2018-01-06T09:11:05.582Z,997.13
2018-01-06T09:11:46.046Z,997.06
2018-01-06T09:12:26.406Z,997.1
2018-01-06T09:13:06.716Z,997.05
2018-01-06T09:13:47.261Z,997.06
2018-01-06T09:15:58.766Z,997.06
2018-01-06T09:16:51.782Z,997.08
2018-01-06T09:17:44.298Z,997.05
2018-01-06T09:18:36.677Z,997.05
2018-01-06T09:19:29.350Z,997.06
2018-01-06T09:20:21.761Z,997.05
2018-01-06T09:21:14.305Z,997.02
2018-01-06T09:22:07.187Z,997.08
2018-01-06T09:23:01.369Z,997.07
2018-01-06T09:23:54.026Z,997.09
2018-01-06T09:24:47.025Z,997.12
2018-01-06T09:25:41.250Z,997.1
2018-01-06T09:27:50.585Z,997.15
2018-01-06T09:28:30.931Z,997.21
2018-01-06T09:29:12.456Z,997.23
2018-01-06T09:29:52.793Z,997.22
2018-01-06T09:30:33.211Z,997.25
2018-01-06T09:31:15.596Z,997.26
2018-01-06T09:32:10.094Z,997.29
2018-01-06T09:32:49.156Z,997.27
2018-01-06T09:33:29.463Z,997.34
2018-01-06T09:34:09.838Z,997.32
2018-01-06T09:34:50.296Z,997.28
2018-01-06T09:35:30.654Z,997.29
2018-01-06T09:36:11.034Z,997.28
2018-01-06T09:36:51.484Z,997.28
2018-01-06T09:37:31.905Z,997.25
2018-01-06T09:38:12.275Z,997.25
2018-01-06T09:38:52.701Z,997.24
2018-01-06T09:39:33.054Z,997.28
2018-01-06T09:40:13.457Z,997.27
2018-01-06T09:40:53.912Z,997.25
2018-01-06T09:41:34.323Z,997.29
2018-01-06T09:42:14.668Z,997.3
2018-01-06T09:42:55.125Z,997.31
2018-01-06T09:43:35.489Z,997.27
2018-01-06T09:44:15.914Z,997.28
2018-01-06T09:44:56.316Z,997.34
2018-01-06T09:45:36.723Z,997.37
2018-01-06T09:46:17.155Z,997.38
2018-01-06T09:46:57.490Z,997.4
2018-01-06T09:47:37.922Z,997.41
2018-01-06T09:48:18.290Z,997.41
2018-01-06T09:48:58.721Z,997.44
2018-01-06T09:49:39.143Z,997.44
2018-01-06T09:50:19.515Z,997.48
2018-01-06T09:50:59.930Z,997.49
2018-01-06T09:51:40.330Z,997.45
2018-01-06T09:52:20.794Z,997.52
2018-01-06T09:53:01.243Z,997.48
2018-01-06T09:53:41.592Z,997.5
2018-01-06T09:54:22.007Z,997.52
2018-01-06T09:55:02.385Z,997.55
2018-01-06T09:55:42.770Z,997.59
2018-01-06T09:56:23.262Z,997.57
2018-01-06T09:57:03.625Z,997.57
2018-01-06T09:57:43.922Z,997.57
2018-01-06T09:58:24.320Z,997.55
2018-01-06T09:59:04.847Z,997.58
2018-01-06T09:59:45.252Z,997.53
2018-01-06T10:00:25.651Z,997.53
2018-01-06T10:01:06.118Z,997.56
2018-01-06T10:01:46.466Z,997.55
2018-01-06T10:02:26.892Z,997.61
2018-01-06T10:03:07.269Z,997.58
2018-01-06T10:03:47.686Z,997.59
2018-01-06T10:41:46.559Z,997.71
2018-01-06T10:42:26.865Z,997.75
2018-01-06T10:44:20.035Z,997.67
2018-01-06T10:45:00.402Z,997.69
2018-01-06T10:45:40.788Z,997.73
2018-01-06T10:47:39.190Z,997.75
2018-01-06T10:48:19.714Z,997.81
2018-01-06T10:48:59.944Z,997.79
2018-01-06T10:49:40.389Z,997.77
2018-01-06T10:50:20.769Z,997.84
2018-01-06T10:51:01.127Z,997.81
2018-01-06T10:51:41.585Z,997.82
2018-01-06T10:52:21.979Z,997.84
2018-01-06T10:53:02.476Z,997.84
2018-01-06T10:53:42.861Z,997.85
2018-01-06T10:54:23.264Z,997.87
2018-01-06T10:55:03.615Z,997.88
2018-01-06T10:55:44.040Z,997.88
2018-01-06T10:56:24.456Z,997.82
2018-01-06T10:57:04.835Z,997.85
2018-01-06T10:57:45.269Z,997.82